createdAt,value
2023-04-23T00:00:54.743Z,1.60
2023-04-23T00:01:57.208Z,1.60
2023-04-23T00:03:01.838Z,1.80
2023-04-23T00:04:06.417Z,1.50
2023-04-23T00:05:10.198Z,1.60
2023-04-23T00:06:14.768Z,1.60
2023-04-23T00:07:19.108Z,1.70
2023-04-23T00:08:23.466Z,1.60
2023-04-23T00:09:27.540Z,1.80
2023-04-23T00:10:31.896Z,2.00
2023-04-23T00:11:36.502Z,1.80
2023-04-23T00:12:41.070Z,1.80
2023-04-23T00:13:45.327Z,2.00
2023-04-23T00:14:49.679Z,1.90
2023-04-23T00:15:54.283Z,1.90
2023-04-23T00:16:58.610Z,2.00
2023-04-23T00:18:02.726Z,1.80
2023-04-23T00:19:07.276Z,2.10
2023-04-23T00:20:11.621Z,1.90
2023-04-23T00:21:15.565Z,1.90
2023-04-23T00:22:16.065Z,2.30
2023-04-23T00:23:20.389Z,2.00
2023-04-23T00:24:24.738Z,2.60
2023-04-23T00:25:29.087Z,2.10
2023-04-23T00:26:33.433Z,2.10
2023-04-23T00:27:37.500Z,2.20
2023-04-23T00:28:42.104Z,1.90
2023-04-23T00:29:46.429Z,2.40
2023-04-23T00:30:50.507Z,2.20
2023-04-23T00:31:55.123Z,2.20
2023-04-23T00:32:59.721Z,2.30
2023-04-23T00:34:04.047Z,2.40
2023-04-23T00:35:07.847Z,2.40
2023-04-23T00:36:12.173Z,2.30
2023-04-23T00:37:16.781Z,2.30
2023-04-23T00:38:21.131Z,2.30
2023-04-23T00:39:25.444Z,2.60
2023-04-23T00:40:29.790Z,2.50
2023-04-23T00:41:34.114Z,2.40
2023-04-23T00:42:38.726Z,2.50
2023-04-23T00:43:42.808Z,2.50
2023-04-23T00:44:46.872Z,2.50
2023-04-23T00:45:51.230Z,2.40
2023-04-23T00:46:55.796Z,2.40
2023-04-23T00:48:00.285Z,2.50
2023-04-23T00:49:04.464Z,2.70
2023-04-23T00:50:08.561Z,2.50
2023-04-23T00:51:13.384Z,3.00
2023-04-23T00:52:13.261Z,2.70
2023-04-23T00:53:17.579Z,2.50
2023-04-23T00:54:22.202Z,3.00
2023-04-23T00:55:26.007Z,2.90
2023-04-23T00:56:30.360Z,2.70
2023-04-23T00:57:34.925Z,2.50
2023-04-23T00:58:39.006Z,2.80
2023-04-23T00:59:43.338Z,2.90
2023-04-23T01:00:47.679Z,2.50
2023-04-23T01:01:51.997Z,2.70
2023-04-23T01:02:56.880Z,2.70
2023-04-23T01:04:00.923Z,2.80
2023-04-23T01:05:05.076Z,2.80
2023-04-23T01:06:09.370Z,2.80
2023-04-23T01:07:13.684Z,2.10
2023-04-23T01:08:18.285Z,2.40
2023-04-23T01:09:22.611Z,2.50
2023-04-23T01:10:26.688Z,2.80
2023-04-23T01:11:31.277Z,2.80
2023-04-23T01:12:35.626Z,2.50
2023-04-23T01:13:39.711Z,2.40
2023-04-23T01:14:44.076Z,2.60
2023-04-23T01:15:48.396Z,2.50
2023-04-23T01:16:53.071Z,2.50
2023-04-23T01:17:57.096Z,2.60
2023-04-23T01:19:01.653Z,2.80
2023-04-23T01:20:05.989Z,2.90
2023-04-23T01:21:10.576Z,2.90
2023-04-23T01:22:10.443Z,3.00
2023-04-23T01:23:15.019Z,3.10
2023-04-23T01:24:19.113Z,3.30
2023-04-23T01:25:23.438Z,2.80
2023-04-23T01:26:27.524Z,3.10
2023-04-23T01:27:32.154Z,3.30
2023-04-23T01:28:36.213Z,2.80
2023-04-23T01:29:40.817Z,3.40
2023-04-23T01:30:44.953Z,3.20
2023-04-23T01:31:49.477Z,3.30
2023-04-23T01:32:53.820Z,3.40
2023-04-23T01:33:57.873Z,3.30
2023-04-23T01:35:02.498Z,3.30
2023-04-23T01:36:06.541Z,3.30
2023-04-23T01:37:10.908Z,3.10
2023-04-23T01:38:15.228Z,2.90
2023-04-23T01:39:19.558Z,3.00
2023-04-23T01:40:23.894Z,3.00
2023-04-23T01:41:28.491Z,2.90
2023-04-23T01:42:32.809Z,2.80
2023-04-23T01:43:36.895Z,3.00
2023-04-23T01:44:41.639Z,3.20
2023-04-23T01:45:45.821Z,3.00
2023-04-23T01:46:49.902Z,3.00
2023-04-23T01:47:54.260Z,3.10
2023-04-23T01:48:58.839Z,3.00
2023-04-23T01:50:02.939Z,3.20
2023-04-23T01:51:07.538Z,3.40
2023-04-23T01:52:07.631Z,3.20
2023-04-23T01:53:12.249Z,3.50
2023-04-23T01:54:16.576Z,3.20
2023-04-23T01:55:20.384Z,3.10
2023-04-23T01:56:24.708Z,3.20
2023-04-23T01:57:29.358Z,2.90
2023-04-23T01:58:33.664Z,2.90
2023-04-23T01:59:38.007Z,2.80
2023-04-23T02:00:42.084Z,2.50
2023-04-23T02:01:47.005Z,2.70
2023-04-23T02:02:51.209Z,3.10
2023-04-23T02:03:55.409Z,3.10
2023-04-23T02:04:59.427Z,3.00
2023-04-23T02:06:03.755Z,3.00
2023-04-23T02:07:08.360Z,3.20
2023-04-23T02:08:12.437Z,3.30
2023-04-23T02:09:16.839Z,3.20
2023-04-23T02:10:21.383Z,3.20
2023-04-23T02:11:25.698Z,3.10
2023-04-23T02:12:30.301Z,3.20
2023-04-23T02:13:34.393Z,3.00
2023-04-23T02:14:38.511Z,3.00
2023-04-23T02:15:42.814Z,2.90
2023-04-23T02:16:47.386Z,3.30
2023-04-23T02:17:51.495Z,2.90
2023-04-23T02:18:56.055Z,3.00
2023-04-23T02:20:00.410Z,3.00
2023-04-23T02:21:04.731Z,2.90
2023-04-23T02:22:04.851Z,2.90
2023-04-23T02:23:09.191Z,3.00
2023-04-23T02:24:13.528Z,2.60
2023-04-23T02:25:17.903Z,2.80
2023-04-23T02:26:21.933Z,2.80
2023-04-23T02:27:26.269Z,2.80
2023-04-23T02:28:30.875Z,2.70
2023-04-23T02:29:34.968Z,2.60
2023-04-23T02:30:39.273Z,2.40
2023-04-23T02:31:43.918Z,2.50
2023-04-23T02:32:48.262Z,2.60
2023-04-23T02:36:42.712Z,2.50
2023-04-23T02:37:48.302Z,2.70
2023-04-23T02:38:52.394Z,2.40
2023-04-23T02:39:56.464Z,2.40
2023-04-23T02:41:00.835Z,2.60
2023-04-23T02:42:05.155Z,2.20
2023-04-23T02:43:09.759Z,2.40
2023-04-23T02:44:14.092Z,2.40
2023-04-23T02:45:18.178Z,2.40
2023-04-23T02:46:23.054Z,2.40
2023-04-23T02:47:27.213Z,2.60
2023-04-23T02:48:31.430Z,2.40
2023-04-23T02:49:35.504Z,2.80
2023-04-23T02:50:39.851Z,2.90
2023-04-23T02:51:44.445Z,2.60
2023-04-23T02:52:48.521Z,2.80
2023-04-23T02:53:53.135Z,2.80
2023-04-23T02:54:57.742Z,3.00
2023-04-23T02:56:02.031Z,2.60
2023-04-23T02:57:06.009Z,2.90
2023-04-23T02:58:10.183Z,2.60
2023-04-23T02:59:14.772Z,2.50
2023-04-23T03:00:18.857Z,2.50
2023-04-23T03:01:23.296Z,2.70
2023-04-23T03:02:27.860Z,2.50
2023-04-23T03:03:32.399Z,2.70
2023-04-23T03:04:36.460Z,3.00
2023-04-23T03:05:40.541Z,3.00
2023-04-23T03:06:40.927Z,2.90
2023-04-23T03:07:45.249Z,2.80
2023-04-23T03:08:49.562Z,3.10
2023-04-23T03:09:53.665Z,3.10
2023-04-23T03:10:58.258Z,3.10
2023-04-23T03:12:02.605Z,3.40
2023-04-23T03:13:06.691Z,3.50
2023-04-23T03:14:11.273Z,3.40
2023-04-23T03:15:15.328Z,3.20
2023-04-23T03:16:20.004Z,3.00
2023-04-23T03:17:24.052Z,3.40
2023-04-23T03:18:28.340Z,3.30
2023-04-23T03:19:32.673Z,2.90
2023-04-23T03:20:37.282Z,3.00
2023-04-23T03:21:41.599Z,3.70
2023-04-23T03:22:45.961Z,3.70
2023-04-23T03:23:50.025Z,4.00
2023-04-23T03:24:54.877Z,4.20
2023-04-23T03:25:59.185Z,3.70
2023-04-23T03:27:03.286Z,4.10
2023-04-23T03:28:07.355Z,4.40
2023-04-23T03:29:11.746Z,4.20
2023-04-23T03:30:16.276Z,4.40
2023-04-23T03:31:20.651Z,4.40
2023-04-23T03:32:24.983Z,4.30
2023-04-23T03:33:29.034Z,4.10
2023-04-23T03:34:33.885Z,4.70
2023-04-23T03:35:37.712Z,4.10
2023-04-23T03:36:38.088Z,4.40
2023-04-23T03:37:42.693Z,4.40
2023-04-23T03:38:46.759Z,4.60
2023-04-23T03:39:51.079Z,4.20
2023-04-23T03:40:55.156Z,4.20
2023-04-23T03:41:59.799Z,4.30
2023-04-23T03:43:04.150Z,3.90
2023-04-23T03:44:08.466Z,3.60
2023-04-23T03:45:12.810Z,3.20
2023-04-23T03:46:17.227Z,3.20
2023-04-23T03:47:21.528Z,3.00
2023-04-23T03:48:25.561Z,3.20
2023-04-23T03:49:29.887Z,2.80
2023-04-23T03:50:34.277Z,3.20
2023-04-23T03:51:38.859Z,4.60
2023-04-23T03:52:42.909Z,3.90
2023-04-23T03:53:47.533Z,3.90
2023-04-23T03:54:52.130Z,4.10
2023-04-23T03:55:56.454Z,4.40
2023-04-23T03:57:00.283Z,3.00
2023-04-23T03:58:04.888Z,3.60
2023-04-23T03:59:09.224Z,3.60
2023-04-23T04:00:13.572Z,3.80
2023-04-23T04:01:17.669Z,3.30
2023-04-23T04:02:22.344Z,4.50
2023-04-23T04:03:27.073Z,3.80
2023-04-23T04:04:31.315Z,2.20
2023-04-23T04:05:35.261Z,2.00
2023-04-23T04:06:35.330Z,2.20
2023-04-23T04:07:39.682Z,1.40
2023-04-23T04:08:43.741Z,1.40
2023-04-23T04:09:48.348Z,1.30
2023-04-23T04:10:52.424Z,1.20
2023-04-23T04:11:57.011Z,1.30
2023-04-23T04:13:01.088Z,1.50
2023-04-23T04:14:05.680Z,1.80
2023-04-23T04:15:10.282Z,2.20
2023-04-23T04:16:14.654Z,1.80
2023-04-23T04:17:18.854Z,2.50
2023-04-23T04:18:23.015Z,2.80
2023-04-23T04:19:27.099Z,3.00
2023-04-23T04:20:31.688Z,2.50
2023-04-23T04:21:36.036Z,3.20
2023-04-23T04:22:40.363Z,3.60
2023-04-23T04:23:44.702Z,3.20
2023-04-23T04:24:49.296Z,2.90
2023-04-23T04:25:55.666Z,3.20
2023-04-23T04:26:56.817Z,2.60
2023-04-23T04:28:02.161Z,2.60
2023-04-23T04:29:12.813Z,2.80
2023-04-23T04:30:10.574Z,2.80
2023-04-23T04:31:14.935Z,3.20
2023-04-23T04:32:19.235Z,2.90
2023-04-23T04:33:23.885Z,3.50
2023-04-23T04:34:34.142Z,3.40
2023-04-23T04:35:31.111Z,3.10
2023-04-23T04:36:32.282Z,3.40
2023-04-23T04:37:36.379Z,4.00
2023-04-23T04:38:40.484Z,3.60
2023-04-23T04:39:51.508Z,2.60
2023-04-23T04:40:52.086Z,2.70
2023-04-23T04:41:53.980Z,2.50
2023-04-23T04:42:53.158Z,2.70
2023-04-23T04:43:57.712Z,2.90
2023-04-23T04:45:02.057Z,2.80
2023-04-23T04:46:07.682Z,3.50
2023-04-23T04:47:10.519Z,4.50
2023-04-23T04:48:15.374Z,4.80
2023-04-23T04:49:19.477Z,5.50
2023-04-23T04:50:23.557Z,6.50
2023-04-23T04:51:28.389Z,5.50
2023-04-23T04:52:32.476Z,6.50
2023-04-23T04:53:36.795Z,6.30
2023-04-23T04:54:41.937Z,6.70
2023-04-23T04:55:51.999Z,6.60
2023-04-23T04:56:52.966Z,8.30
2023-04-23T04:57:52.366Z,7.00
2023-04-23T04:58:56.719Z,8.20
2023-04-23T05:00:01.086Z,7.90
2023-04-23T05:01:11.041Z,8.20
2023-04-23T05:02:10.411Z,7.80
2023-04-23T05:03:14.775Z,8.60
2023-04-23T05:04:18.992Z,9.20
2023-04-23T05:05:29.958Z,8.80
2023-04-23T05:06:23.645Z,5.60
2023-04-23T05:07:27.997Z,5.00
2023-04-23T05:08:32.340Z,5.50
2023-04-23T05:09:36.658Z,5.90
2023-04-23T05:10:41.230Z,5.20
2023-04-23T05:11:45.326Z,4.90
2023-04-23T05:12:49.408Z,5.20
2023-04-23T05:13:58.746Z,5.30
2023-04-23T05:14:57.862Z,6.30
2023-04-23T05:16:02.187Z,5.20
2023-04-23T05:17:06.528Z,5.40
2023-04-23T05:18:11.417Z,3.70
2023-04-23T05:19:18.447Z,3.60
2023-04-23T05:20:18.255Z,5.10
2023-04-23T05:21:22.349Z,4.90
2023-04-23T05:22:26.411Z,4.80
2023-04-23T05:23:30.778Z,4.90
2023-04-23T05:24:37.825Z,5.40
2023-04-23T05:25:36.957Z,4.40
2023-04-23T05:26:41.334Z,4.60
2023-04-23T05:27:45.662Z,3.90
2023-04-23T05:28:50.036Z,3.70
2023-04-23T05:29:57.222Z,4.30
2023-04-23T05:30:56.848Z,3.90
2023-04-23T05:32:00.968Z,3.50
2023-04-23T05:33:05.102Z,3.60
2023-04-23T05:34:16.089Z,3.40
2023-04-23T05:35:17.644Z,4.30
2023-04-23T05:36:18.305Z,3.10
2023-04-23T05:37:22.380Z,3.50
2023-04-23T05:38:26.442Z,3.80
2023-04-23T05:39:37.543Z,3.70
2023-04-23T05:40:38.265Z,3.40
2023-04-23T05:41:40.192Z,3.10
2023-04-23T05:42:39.822Z,2.80
2023-04-23T05:43:43.910Z,3.00
2023-04-23T05:44:48.252Z,2.60
2023-04-23T05:45:58.849Z,2.50
2023-04-23T05:46:56.995Z,3.30
2023-04-23T05:48:01.061Z,2.90
2023-04-23T05:49:05.345Z,2.70
2023-04-23T05:50:09.726Z,2.90
2023-04-23T05:51:17.332Z,3.10
2023-04-23T05:52:16.451Z,3.20
2023-04-23T05:53:21.119Z,4.80
2023-04-23T05:54:25.431Z,3.70
2023-04-23T05:55:35.967Z,3.90
2023-04-23T05:56:33.811Z,4.40
2023-04-23T05:57:38.144Z,4.80
2023-04-23T05:58:42.503Z,6.00
2023-04-23T05:59:46.568Z,6.40
2023-04-23T06:00:51.176Z,5.80
2023-04-23T06:01:55.260Z,5.50
2023-04-23T06:02:57.023Z,5.20
2023-04-23T06:04:04.403Z,4.60
2023-04-23T06:05:08.980Z,4.60
2023-04-23T06:06:08.971Z,3.40
2023-04-23T06:07:13.019Z,3.90
2023-04-23T06:08:17.382Z,2.80
2023-04-23T06:09:21.758Z,3.20
2023-04-23T06:10:26.323Z,2.80
2023-04-23T06:11:30.665Z,3.00
2023-04-23T06:12:34.725Z,2.80
2023-04-23T06:13:40.548Z,3.30
2023-04-23T06:14:43.850Z,3.00
2023-04-23T06:15:47.737Z,2.40
2023-04-23T06:16:52.325Z,3.40
2023-04-23T06:17:56.465Z,2.80
2023-04-23T06:19:00.767Z,3.50
2023-04-23T06:20:13.000Z,3.60
2023-04-23T06:21:07.193Z,3.40
2023-04-23T06:22:11.540Z,3.70
2023-04-23T06:23:15.604Z,3.10
2023-04-23T06:24:20.457Z,3.30
2023-04-23T06:25:24.552Z,4.20
2023-04-23T06:26:28.612Z,4.10
2023-04-23T06:27:33.193Z,3.80
2023-04-23T06:28:37.551Z,3.80
2023-04-23T06:29:41.624Z,3.90
2023-04-23T06:30:46.231Z,3.70
2023-04-23T06:31:50.580Z,3.50
2023-04-23T06:32:55.183Z,2.70
2023-04-23T06:33:59.503Z,2.40
2023-04-23T06:35:03.802Z,2.40
2023-04-23T06:36:09.147Z,2.40
2023-04-23T06:37:13.251Z,1.80
2023-04-23T06:38:17.562Z,2.00
2023-04-23T06:39:21.880Z,2.20
2023-04-23T06:40:25.992Z,2.10
2023-04-23T06:41:30.880Z,2.50
2023-04-23T06:42:34.919Z,2.40
2023-04-23T06:43:39.270Z,2.10
2023-04-23T06:44:46.131Z,2.10
2023-04-23T06:45:45.241Z,1.70
2023-04-23T06:46:49.606Z,1.80
2023-04-23T06:47:53.924Z,2.00
2023-04-23T06:48:58.241Z,2.00
2023-04-23T06:50:02.847Z,2.00
2023-04-23T06:51:06.925Z,2.10
2023-04-23T06:52:11.776Z,2.10
2023-04-23T06:53:15.876Z,1.80
2023-04-23T06:54:20.233Z,1.70
2023-04-23T06:55:24.540Z,1.80
2023-04-23T06:56:28.588Z,1.70
2023-04-23T06:57:33.209Z,2.40
2023-04-23T06:58:37.500Z,2.30
2023-04-23T06:59:41.859Z,4.10
2023-04-23T07:00:46.214Z,5.00
2023-04-23T07:01:50.769Z,2.80
2023-04-23T07:02:54.925Z,1.80
2023-04-23T07:03:59.219Z,1.70
2023-04-23T07:05:03.535Z,2.40
2023-04-23T07:06:07.361Z,1.80
2023-04-23T07:07:08.012Z,1.80
2023-04-23T07:08:12.079Z,1.80
2023-04-23T07:09:16.399Z,3.30
2023-04-23T07:10:20.748Z,3.00
2023-04-23T07:11:25.059Z,4.60
2023-04-23T07:12:29.648Z,3.10
2023-04-23T07:13:34.248Z,1.90
2023-04-23T07:14:38.541Z,2.10
2023-04-23T07:15:42.455Z,2.80
2023-04-23T07:16:46.830Z,3.30
2023-04-23T07:17:51.129Z,2.30
2023-04-23T07:18:55.659Z,1.80
2023-04-23T07:20:00.030Z,1.80
2023-04-23T07:21:04.095Z,2.60
2023-04-23T07:22:08.958Z,1.80
2023-04-23T07:23:13.053Z,1.60
2023-04-23T07:24:17.380Z,1.80
2023-04-23T07:25:21.457Z,2.20
2023-04-23T07:26:25.802Z,1.80
2023-04-23T07:27:32.892Z,1.50
2023-04-23T07:28:32.268Z,1.60
2023-04-23T07:29:36.608Z,2.00
2023-04-23T07:30:40.681Z,3.00
2023-04-23T07:31:45.290Z,2.40
2023-04-23T07:32:49.668Z,2.70
2023-04-23T07:33:53.972Z,2.80
2023-04-23T07:34:58.036Z,2.00
2023-04-23T07:36:02.392Z,2.10
2023-04-23T07:37:02.770Z,2.20
2023-04-23T07:38:07.084Z,2.40
2023-04-23T07:39:11.437Z,2.50
2023-04-23T07:40:15.780Z,2.30
2023-04-23T07:41:20.127Z,2.30
2023-04-23T07:42:24.453Z,2.30
2023-04-23T07:43:28.776Z,2.60
2023-04-23T07:44:33.115Z,2.30
2023-04-23T07:45:37.498Z,2.20
2023-04-23T07:46:41.539Z,2.50
2023-04-23T07:47:46.140Z,2.10
2023-04-23T07:48:50.504Z,2.30
2023-04-23T07:49:54.597Z,2.10
2023-04-23T07:50:59.199Z,2.70
2023-04-23T07:52:03.293Z,2.30
2023-04-23T07:53:07.875Z,2.50
2023-04-23T07:54:12.218Z,2.70
2023-04-23T07:55:16.315Z,2.20
2023-04-23T07:56:20.738Z,2.30
2023-04-23T07:57:25.233Z,2.30
2023-04-23T07:58:29.323Z,2.20
2023-04-23T07:59:33.686Z,2.10
2023-04-23T08:00:38.274Z,2.10
2023-04-23T08:01:42.648Z,2.10
2023-04-23T08:02:47.329Z,1.80
2023-04-23T08:03:51.600Z,2.00
2023-04-23T08:04:55.908Z,1.80
2023-04-23T08:05:59.985Z,1.60
2023-04-23T08:06:59.857Z,1.80
2023-04-23T08:08:04.197Z,1.80
2023-04-23T08:09:08.801Z,1.70
2023-04-23T08:10:12.891Z,1.90
2023-04-23T08:11:17.218Z,2.20
2023-04-23T08:12:21.546Z,2.20
2023-04-23T08:13:26.388Z,2.20
2023-04-23T08:14:30.469Z,1.80
2023-04-23T08:15:34.780Z,1.70
2023-04-23T08:16:39.300Z,1.80
2023-04-23T08:17:43.511Z,1.80
2023-04-23T08:19:03.589Z,1.70
2023-04-23T08:19:51.862Z,1.80
2023-04-23T08:20:56.181Z,1.90
2023-04-23T08:22:00.533Z,1.50
2023-04-23T08:23:05.375Z,2.00
2023-04-23T08:24:09.433Z,2.00
2023-04-23T08:25:13.508Z,1.90
2023-04-23T08:26:17.844Z,1.60
2023-04-23T08:27:22.450Z,1.90
2023-04-23T08:28:26.529Z,1.70
2023-04-23T08:29:30.837Z,1.40
2023-04-23T08:30:35.437Z,1.60
2023-04-23T08:31:40.083Z,1.50
2023-04-23T08:32:44.178Z,1.60
2023-04-23T08:33:48.486Z,1.60
2023-04-23T08:34:52.547Z,1.70
2023-04-23T08:35:57.181Z,1.50
2023-04-23T08:36:57.245Z,1.70
2023-04-23T08:38:01.609Z,1.60
2023-04-23T08:39:05.922Z,1.40
2023-04-23T08:40:10.041Z,1.30
2023-04-23T08:41:14.359Z,1.30
2023-04-23T08:42:18.680Z,1.50
2023-04-23T08:43:23.531Z,1.40
2023-04-23T08:44:27.652Z,1.20
2023-04-23T08:45:31.718Z,1.50
2023-04-23T08:46:36.325Z,1.50
2023-04-23T08:47:40.669Z,1.30
2023-04-23T08:48:44.967Z,1.30
2023-04-23T08:49:49.076Z,1.30
2023-04-23T08:50:53.633Z,1.20
2023-04-23T08:51:57.726Z,1.50
2023-04-23T08:53:02.579Z,1.50
2023-04-23T08:54:06.655Z,1.40
2023-04-23T08:55:10.998Z,1.30
2023-04-23T08:56:15.083Z,1.40
2023-04-23T08:57:19.694Z,1.30
2023-04-23T08:58:24.013Z,1.20
2023-04-23T08:59:28.105Z,1.20
2023-04-23T09:00:32.484Z,1.60
2023-04-23T09:01:37.304Z,1.70
2023-04-23T09:02:41.604Z,1.50
2023-04-23T09:03:45.809Z,1.50
2023-04-23T09:04:51.851Z,1.40
2023-04-23T09:05:54.469Z,1.10
2023-04-23T09:06:54.645Z,1.40
2023-04-23T09:07:58.996Z,1.50
2023-04-23T09:09:03.069Z,1.60
2023-04-23T09:10:05.057Z,1.50
2023-04-23T09:11:12.128Z,1.50
2023-04-23T09:12:16.727Z,1.50
2023-04-23T09:13:21.331Z,1.50
2023-04-23T09:14:25.439Z,1.40
2023-04-23T09:15:29.484Z,1.60
2023-04-23T09:16:33.877Z,1.60
2023-04-23T09:17:34.939Z,1.70
2023-04-23T09:18:42.016Z,1.60
2023-04-23T09:19:46.354Z,1.60
2023-04-23T09:20:50.698Z,1.80
2023-04-23T09:21:55.355Z,1.50
2023-04-23T09:22:59.636Z,1.50
2023-04-23T09:24:03.972Z,1.60
2023-04-23T09:25:08.061Z,1.70
2023-04-23T09:26:12.364Z,1.70
2023-04-23T09:27:16.963Z,1.80
2023-04-23T09:28:21.023Z,1.80
2023-04-23T09:29:25.358Z,1.80
2023-04-23T09:30:29.948Z,1.80
2023-04-23T09:31:34.311Z,1.70
2023-04-23T09:32:38.639Z,1.60
2023-04-23T09:33:42.974Z,1.40
2023-04-23T09:34:47.038Z,1.40
2023-04-23T09:35:51.641Z,1.50
2023-04-23T09:36:52.098Z,1.30
2023-04-23T09:37:56.200Z,1.70
2023-04-23T09:39:00.547Z,1.50
2023-04-23T09:40:05.169Z,1.60
2023-04-23T09:41:09.582Z,1.70
2023-04-23T09:42:13.897Z,1.60
2023-04-23T09:43:20.995Z,1.60
2023-04-23T09:44:20.125Z,1.80
2023-04-23T09:45:24.707Z,1.60
2023-04-23T09:46:29.082Z,1.80
2023-04-23T09:47:33.419Z,1.50
2023-04-23T09:48:37.490Z,1.40
2023-04-23T09:49:42.159Z,1.50
2023-04-23T09:50:46.171Z,1.40
2023-04-23T09:51:50.506Z,1.30
2023-04-23T09:52:55.369Z,1.30
2023-04-23T09:53:59.685Z,1.30
2023-04-23T09:55:03.795Z,1.50
2023-04-23T09:56:08.106Z,1.50
2023-04-23T09:57:12.426Z,1.30
2023-04-23T09:58:16.500Z,1.50
2023-04-23T09:59:26.495Z,1.70
2023-04-23T10:00:25.161Z,1.80
2023-04-23T10:01:29.812Z,1.50
2023-04-23T10:02:34.195Z,1.60
2023-04-23T10:03:41.289Z,1.80
2023-04-23T10:04:43.051Z,1.60
2023-04-23T10:06:57.995Z,1.60
2023-04-23T10:07:51.579Z,1.60
2023-04-23T10:08:55.654Z,1.50
2023-04-23T10:10:00.025Z,1.70
2023-04-23T10:11:20.135Z,1.60
2023-04-23T10:12:15.232Z,1.30
2023-04-23T10:13:13.528Z,1.50
2023-04-23T10:14:17.622Z,1.70
2023-04-23T10:15:21.736Z,1.50
2023-04-23T10:16:30.622Z,1.60
2023-04-23T10:17:30.706Z,1.40
2023-04-23T10:18:34.744Z,1.40
2023-04-23T10:19:40.022Z,1.60
2023-04-23T10:20:43.430Z,1.40
2023-04-23T10:21:56.164Z,1.50
2023-04-23T10:22:52.635Z,1.30
2023-04-23T10:23:56.696Z,1.30
2023-04-23T10:25:01.066Z,1.40
2023-04-23T10:26:05.171Z,1.40
2023-04-23T10:27:24.942Z,1.30
2023-04-23T10:28:14.186Z,1.20
2023-04-23T10:29:18.546Z,1.30
2023-04-23T10:30:23.226Z,1.50
2023-04-23T10:31:27.627Z,1.40
2023-04-23T10:32:31.963Z,1.40
2023-04-23T10:33:45.716Z,1.30
2023-04-23T10:34:40.067Z,1.30
2023-04-23T10:35:44.400Z,1.20
2023-04-23T10:36:44.887Z,1.30
2023-04-23T10:37:48.970Z,1.50
2023-04-23T10:38:58.811Z,1.60
2023-04-23T10:39:57.903Z,1.30
2023-04-23T10:41:01.989Z,1.30
2023-04-23T10:42:06.602Z,1.50
2023-04-23T10:43:11.143Z,1.30
2023-04-23T10:44:16.210Z,1.20
2023-04-23T10:45:24.210Z,1.40
2023-04-23T10:46:23.679Z,1.40
2023-04-23T10:47:28.260Z,1.20
2023-04-23T10:48:32.609Z,1.30
2023-04-23T10:49:36.924Z,1.40
2023-04-23T10:50:58.535Z,1.40
2023-04-23T10:52:17.662Z,1.50
2023-04-23T10:52:49.958Z,1.40
2023-04-23T10:53:54.041Z,1.30
2023-04-23T10:54:58.369Z,1.40
2023-04-23T10:56:02.692Z,1.40
2023-04-23T10:57:07.029Z,1.40
2023-04-23T10:58:11.381Z,1.60
2023-04-23T10:59:15.723Z,1.50
2023-04-23T11:00:20.303Z,1.30
2023-04-23T11:01:24.672Z,1.30
2023-04-23T11:02:29.250Z,1.50
2023-04-23T11:03:33.549Z,1.60
2023-04-23T11:04:37.453Z,1.60
2023-04-23T11:05:41.737Z,1.60
2023-04-23T11:06:42.142Z,1.50
2023-04-23T11:07:46.453Z,1.50
2023-04-23T11:08:51.426Z,1.20
2023-04-23T11:09:54.863Z,1.30
2023-04-23T11:10:59.475Z,1.60
2023-04-23T11:12:03.838Z,1.30
2023-04-23T11:13:08.163Z,1.40
2023-04-23T11:14:12.508Z,1.60
2023-04-23T11:15:16.852Z,1.70
2023-04-23T11:16:21.233Z,1.60
2023-04-23T11:17:25.545Z,1.40
2023-04-23T11:18:29.595Z,1.60
2023-04-23T11:19:34.198Z,1.40
2023-04-23T11:20:38.517Z,1.30
2023-04-23T11:21:45.503Z,1.60
2023-04-23T11:22:44.902Z,1.50
2023-04-23T11:23:49.206Z,1.40
2023-04-23T11:24:53.304Z,1.60
2023-04-23T11:26:00.666Z,2.00
2023-04-23T11:27:00.095Z,1.50
2023-04-23T11:28:04.402Z,1.30
2023-04-23T11:29:08.716Z,1.50
2023-04-23T11:30:13.133Z,1.50
2023-04-23T11:31:17.411Z,2.10
2023-04-23T11:32:21.591Z,1.50
2023-04-23T11:33:26.408Z,1.40
2023-04-23T11:34:30.441Z,1.50
2023-04-23T11:35:34.749Z,1.40
2023-04-23T11:36:40.358Z,1.50
2023-04-23T11:37:44.417Z,1.60
2023-04-23T11:38:48.527Z,1.80
2023-04-23T11:39:52.866Z,1.50
2023-04-23T11:40:57.460Z,1.40
2023-04-23T11:42:01.806Z,1.40
2023-04-23T11:43:06.251Z,1.60
2023-04-23T11:44:10.218Z,2.10
2023-04-23T11:45:14.790Z,1.50
2023-04-23T11:46:19.009Z,1.60
2023-04-23T11:47:23.441Z,1.60
2023-04-23T11:48:27.514Z,1.40
2023-04-23T11:49:32.124Z,1.10
2023-04-23T11:50:36.467Z,1.70
2023-04-23T11:51:40.780Z,2.10
2023-04-23T11:52:45.106Z,2.70
2023-04-23T11:53:49.459Z,1.50
2023-04-23T11:54:53.531Z,1.30
2023-04-23T11:55:58.162Z,1.30
2023-04-23T11:57:02.469Z,1.30
2023-04-23T11:58:06.594Z,1.40
2023-04-23T11:59:11.194Z,1.20
2023-04-23T12:00:15.881Z,1.30
2023-04-23T12:01:19.980Z,1.50
2023-04-23T12:02:24.443Z,1.20
2023-04-23T12:03:28.486Z,1.30
2023-04-23T12:04:32.807Z,1.20
2023-04-23T12:05:37.318Z,1.10
2023-04-23T12:06:51.571Z,1.10
2023-04-23T12:07:47.657Z,1.50
2023-04-23T12:08:52.232Z,1.20
2023-04-23T12:09:58.888Z,1.20
2023-04-23T12:10:58.273Z,1.10
2023-04-23T12:12:10.319Z,1.40
2023-04-23T12:13:06.943Z,1.20
2023-04-23T12:14:11.036Z,1.20
2023-04-23T12:15:15.345Z,1.10
2023-04-23T12:16:19.741Z,1.20
2023-04-23T12:17:24.070Z,1.30
2023-04-23T12:18:28.926Z,1.20
2023-04-23T12:19:32.974Z,1.00
2023-04-23T12:20:37.299Z,1.10
2023-04-23T12:21:41.643Z,1.10
2023-04-23T12:22:45.972Z,1.20
2023-04-23T12:23:50.081Z,1.10
2023-04-23T12:24:54.689Z,1.20
2023-04-23T12:25:59.030Z,1.10
2023-04-23T12:27:03.274Z,1.20
2023-04-23T12:28:07.999Z,1.10
2023-04-23T12:29:11.780Z,1.30
2023-04-23T12:30:16.144Z,1.10
2023-04-23T12:31:20.761Z,1.10
2023-04-23T12:32:25.129Z,1.10
2023-04-23T12:33:29.145Z,1.30
2023-04-23T12:34:33.738Z,1.10
2023-04-23T12:35:38.054Z,1.10
2023-04-23T12:36:43.658Z,1.20
2023-04-23T12:37:47.748Z,1.10
2023-04-23T12:38:52.071Z,1.00
2023-04-23T12:39:56.472Z,1.10
2023-04-23T12:41:00.508Z,1.10
2023-04-23T12:42:05.341Z,1.10
2023-04-23T12:43:09.460Z,1.00
2023-04-23T12:44:13.528Z,1.10
2023-04-23T12:45:18.396Z,1.10
2023-04-23T12:46:22.464Z,1.20
2023-04-23T12:47:26.599Z,1.20
2023-04-23T12:48:31.118Z,1.20
2023-04-23T12:49:35.474Z,1.30
2023-04-23T12:50:39.868Z,1.20
2023-04-23T12:51:44.143Z,1.30
2023-04-23T12:52:48.484Z,1.10
2023-04-23T12:53:52.564Z,1.20
2023-04-23T12:54:57.490Z,1.20
2023-04-23T12:56:01.235Z,1.10
2023-04-23T12:57:05.845Z,1.30
2023-04-23T12:58:09.915Z,1.20
2023-04-23T12:59:14.241Z,1.20
2023-04-23T13:00:18.856Z,1.10
2023-04-23T13:01:22.924Z,1.20
2023-04-23T13:02:27.650Z,1.00
2023-04-23T13:03:32.168Z,1.20
2023-04-23T13:04:36.570Z,1.00
2023-04-23T13:05:40.271Z,1.10
2023-04-23T13:06:46.120Z,1.30
2023-04-23T13:07:50.213Z,1.20
2023-04-23T13:08:54.602Z,1.10
2023-04-23T13:09:58.932Z,1.20
2023-04-23T13:11:02.992Z,1.00
2023-04-23T13:12:07.852Z,1.30
2023-04-23T13:13:11.937Z,1.20
2023-04-23T13:14:16.012Z,1.20
2023-04-23T13:15:20.607Z,1.00
2023-04-23T13:16:24.737Z,1.00
2023-04-23T13:17:29.314Z,1.10
2023-04-23T13:18:33.609Z,1.10
2023-04-23T13:19:37.961Z,1.10
2023-04-23T13:20:42.025Z,1.00
2023-04-23T13:21:46.668Z,1.00
2023-04-23T13:22:50.951Z,1.00
2023-04-23T13:23:55.024Z,1.10
2023-04-23T13:24:59.373Z,1.20
2023-04-23T13:26:03.739Z,1.10
2023-04-23T13:27:08.308Z,1.20
2023-04-23T13:28:12.618Z,1.10
2023-04-23T13:29:16.684Z,1.20
2023-04-23T13:30:21.317Z,1.30
2023-04-23T13:31:25.974Z,1.20
2023-04-23T13:32:30.071Z,1.40
2023-04-23T13:33:34.052Z,1.00
2023-04-23T13:34:38.691Z,1.10
2023-04-23T13:35:42.988Z,1.10
2023-04-23T13:36:48.635Z,1.10
2023-04-23T13:37:52.448Z,1.20
2023-04-23T13:38:57.063Z,1.20
2023-04-23T13:40:01.382Z,1.00
2023-04-23T13:41:05.732Z,1.00
2023-04-23T13:42:10.410Z,1.00
2023-04-23T13:43:14.142Z,1.30
2023-04-23T13:44:18.462Z,1.40
2023-04-23T13:45:22.807Z,1.30
2023-04-23T13:46:27.231Z,1.10
2023-04-23T13:47:31.521Z,1.20
2023-04-23T13:48:36.300Z,1.10
2023-04-23T13:49:40.653Z,1.00
2023-04-23T13:50:41.936Z,1.10
2023-04-23T13:51:49.026Z,1.10
2023-04-23T13:52:53.638Z,1.00
2023-04-23T13:53:57.959Z,1.20
2023-04-23T13:55:02.036Z,1.00
2023-04-23T13:56:09.608Z,0.90
2023-04-23T13:57:08.462Z,1.10
2023-04-23T13:58:13.330Z,1.10
2023-04-23T13:59:19.528Z,1.00
2023-04-23T14:00:21.754Z,1.20
2023-04-23T14:01:26.131Z,1.10
2023-04-23T14:02:30.489Z,1.10
2023-04-23T14:03:34.543Z,1.00
2023-04-23T14:04:38.944Z,0.90
2023-04-23T14:05:43.189Z,1.00
2023-04-23T14:06:49.325Z,0.90
2023-04-23T14:07:53.150Z,0.90
2023-04-23T14:08:57.245Z,1.10
2023-04-23T14:10:01.823Z,1.20
2023-04-23T14:11:06.164Z,1.00
2023-04-23T14:12:10.494Z,0.90
2023-04-23T14:13:14.575Z,1.20
2023-04-23T14:14:19.162Z,1.10
2023-04-23T14:15:23.478Z,1.00
2023-04-23T14:16:27.892Z,1.00
2023-04-23T14:17:32.189Z,1.00
2023-04-23T14:18:36.247Z,0.90